Time;durP1;ratioP1;P1;durP2;ratioP2;P2;SDS_P1;SDS_P2;PMS_P1;PMS_P2;Temp;Humidity;BMP_temperature;BMP_pressure;BME280_temperature;BME280_humidity;BME280_pressure;Samples;Min_cycle;Max_cycle;Signal;HPM_P1;HPM_P2
2023/04/22 00:00:00;;;;;;;0.60;0.40;;;12.40;99.90;;;;;;4982860;28;20671;-64
2023/04/22 00:02:28;;;;;;;0.50;0.35;;;12.50;99.90;;;;;;4989074;28;20217;-64
2023/04/22 00:04:57;;;;;;;0.50;0.40;;;12.40;99.90;;;;;;4987076;28;20790;-64
2023/04/22 00:07:25;;;;;;;6.35;1.00;;;12.50;99.90;;;;;;4982432;28;20206;-65
2023/04/22 00:09:53;;;;;;;0.50;0.40;;;12.50;99.90;;;;;;4975092;28;20203;-66
2023/04/22 00:12:22;;;;;;;1.13;0.68;;;12.50;99.90;;;;;;4984897;28;20706;-66
2023/04/22 00:14:50;;;;;;;0.60;0.50;;;12.50;99.90;;;;;;4988358;28;20221;-67
2023/04/22 00:17:18;;;;;;;0.60;0.40;;;12.50;99.90;;;;;;4973327;28;20227;-66
2023/04/22 00:19:46;;;;;;;0.60;0.45;;;12.50;99.90;;;;;;4973100;28;20207;-64
2023/04/22 00:22:14;;;;;;;0.60;0.50;;;12.60;99.90;;;;;;4986198;28;20216;-65
2023/04/22 00:24:42;;;;;;;0.70;0.50;;;12.60;99.90;;;;;;4995916;28;20230;-66
2023/04/22 00:27:10;;;;;;;0.90;0.60;;;12.70;99.90;;;;;;4978217;28;20727;-66
2023/04/22 00:29:39;;;;;;;0.60;0.50;;;12.60;99.90;;;;;;4972941;28;20201;-66
2023/04/22 00:32:07;;;;;;;0.90;0.73;;;12.60;99.90;;;;;;4973253;28;20254;-65
2023/04/22 00:34:35;;;;;;;0.50;0.30;;;12.60;99.90;;;;;;4972882;28;20241;-65
2023/04/22 00:37:03;;;;;;;0.50;0.43;;;12.60;99.90;;;;;;4979881;28;20236;-66
2023/04/22 00:39:31;;;;;;;0.70;0.60;;;12.60;99.90;;;;;;4973504;28;20285;-66
2023/04/22 00:42:00;;;;;;;0.90;0.60;;;12.60;99.90;;;;;;4973425;28;20204;-66
2023/04/22 00:44:29;;;;;;;1.50;0.50;;;12.50;99.90;;;;;;4982705;28;20273;-66
2023/04/22 00:46:59;;;;;;;0.60;0.40;;;12.50;99.90;;;;;;4973320;28;20282;-66
2023/04/22 00:49:27;;;;;;;0.60;0.50;;;12.50;99.90;;;;;;4972415;28;20237;-66
2023/04/22 00:51:55;;;;;;;0.60;0.50;;;12.50;99.90;;;;;;4983119;28;20321;-66
2023/04/22 00:54:23;;;;;;;0.60;0.50;;;12.60;99.90;;;;;;4991431;28;20721;-65
2023/04/22 00:56:51;;;;;;;0.60;0.47;;;12.60;99.90;;;;;;4981658;28;20225;-66
2023/04/22 00:59:19;;;;;;;0.70;0.52;;;12.60;99.90;;;;;;4991555;28;20226;-66
2023/04/22 01:01:47;;;;;;;1.13;0.63;;;12.60;99.90;;;;;;4985643;28;20711;-67
2023/04/22 01:04:16;;;;;;;0.70;0.70;;;12.60;99.90;;;;;;4991491;28;20226;-67
2023/04/22 01:06:45;;;;;;;1.00;0.60;;;12.60;99.90;;;;;;4984561;28;20206;-65
2023/04/22 01:09:13;;;;;;;0.50;0.30;;;12.60;99.90;;;;;;4991621;28;20215;-65
2023/04/22 01:11:42;;;;;;;0.57;0.40;;;12.70;99.90;;;;;;4983966;28;20725;-65
2023/04/22 01:14:09;;;;;;;0.60;0.60;;;12.70;99.90;;;;;;4991608;28;20308;-65
2023/04/22 01:16:38;;;;;;;1.30;0.57;;;12.70;99.90;;;;;;4979119;28;20628;-66
2023/04/22 01:19:28;;;;;;;0.60;0.45;;;12.70;99.90;;;;;;4983572;28;20249;-66
2023/04/22 01:21:56;;;;;;;0.65;0.60;;;12.70;99.90;;;;;;4977889;28;20207;-66
2023/04/22 01:24:26;;;;;;;1.20;0.73;;;12.70;99.90;;;;;;4989231;28;20661;-66
2023/04/22 01:26:54;;;;;;;0.60;0.50;;;12.70;99.90;;;;;;4986470;28;20636;-66
2023/04/22 01:29:22;;;;;;;0.57;0.47;;;12.70;99.90;;;;;;4980860;28;20220;-66
2023/04/22 01:31:50;;;;;;;0.60;0.50;;;12.80;99.90;;;;;;4974496;28;20211;-66
2023/04/22 01:34:18;;;;;;;0.50;0.40;;;12.70;99.90;;;;;;4980456;28;20218;-66
2023/04/22 01:36:46;;;;;;;0.70;0.63;;;12.70;99.90;;;;;;4972233;28;20216;-66
2023/04/22 01:39:14;;;;;;;0.60;0.40;;;12.70;99.90;;;;;;4972090;28;20237;-66
2023/04/22 01:41:48;;;;;;;0.70;0.40;;;12.70;99.90;;;;;;4979300;28;20256;-66
2023/04/22 01:44:22;;;;;;;0.95;0.60;;;12.60;99.90;;;;;;4971758;28;20238;-65
2023/04/22 01:46:50;;;;;;;0.50;0.40;;;12.60;99.90;;;;;;4978787;28;20293;-66
2023/04/22 01:49:18;;;;;;;0.50;0.40;;;12.70;99.90;;;;;;4972128;28;20743;-65
2023/04/22 01:51:45;;;;;;;0.57;0.52;;;12.70;99.90;;;;;;4977472;28;20234;-66
2023/04/22 01:54:14;;;;;;;0.50;0.40;;;12.70;99.90;;;;;;4972022;28;20224;-67
2023/04/22 01:56:48;;;;;;;0.80;0.73;;;12.80;99.90;;;;;;4995947;28;20701;-66
2023/04/22 01:59:17;;;;;;;0.80;0.80;;;12.70;99.90;;;;;;4987290;28;20241;-66
2023/04/22 02:01:45;;;;;;;0.50;0.40;;;12.80;99.90;;;;;;4977928;28;20293;-65
2023/04/22 02:04:13;;;;;;;0.63;0.60;;;12.60;99.90;;;;;;4985831;28;20309;-64
2023/04/22 02:06:41;;;;;;;0.60;0.50;;;12.50;99.90;;;;;;4975637;28;20204;-65
2023/04/22 02:09:09;;;;;;;0.60;0.50;;;12.40;99.90;;;;;;4981391;28;20209;-64
2023/04/22 02:11:37;;;;;;;1.15;0.60;;;12.30;99.90;;;;;;4975474;28;20342;-64
2023/04/22 02:14:04;;;;;;;0.80;0.65;;;12.20;99.90;;;;;;4980447;28;20309;-64
2023/04/22 02:16:34;;;;;;;1.17;0.60;;;12.10;99.90;;;;;;4975245;28;20203;-64
2023/04/22 02:19:01;;;;;;;0.73;0.63;;;12.20;99.90;;;;;;4981106;28;20209;-63
2023/04/22 02:21:31;;;;;;;0.70;0.52;;;12.20;99.90;;;;;;4991651;28;20205;-63
2023/04/22 02:23:59;;;;;;;0.70;0.60;;;12.30;99.90;;;;;;4975243;28;20306;-64
2023/04/22 02:26:26;;;;;;;0.60;0.40;;;12.30;99.90;;;;;;4989964;28;20240;-64
2023/04/22 02:28:54;;;;;;;0.65;0.40;;;12.40;99.90;;;;;;4987202;28;20633;-64
2023/04/22 02:31:22;;;;;;;0.50;0.40;;;12.50;99.90;;;;;;4992404;28;20289;-65
2023/04/22 02:33:51;;;;;;;1.08;0.98;;;12.40;99.90;;;;;;4986877;28;20312;-65
2023/04/22 02:36:19;;;;;;;0.75;0.60;;;12.30;99.90;;;;;;4982394;28;20289;-65
2023/04/22 02:38:48;;;;;;;0.60;0.57;;;12.10;99.90;;;;;;4988322;28;20212;-65
2023/04/22 02:41:16;;;;;;;0.50;0.40;;;12.20;99.90;;;;;;4984285;28;20747;-64
2023/04/22 02:43:45;;;;;;;0.60;0.50;;;12.20;99.90;;;;;;4983864;28;20321;-65
2023/04/22 02:46:14;;;;;;;0.50;0.40;;;12.20;99.90;;;;;;4988139;28;20567;-66
2023/04/22 02:48:43;;;;;;;0.70;0.57;;;12.10;99.90;;;;;;4989071;28;20268;-65
2023/04/22 02:51:12;;;;;;;0.70;0.50;;;12.10;99.90;;;;;;4988990;28;20697;-65
2023/04/22 02:53:40;;;;;;;0.50;0.40;;;12.10;99.90;;;;;;4989044;28;20276;-65
2023/04/22 02:56:08;;;;;;;0.70;0.63;;;12.00;99.90;;;;;;4992885;28;20276;-65
2023/04/22 02:58:36;;;;;;;0.60;0.47;;;11.90;99.90;;;;;;4989910;28;20285;-64
2023/04/22 03:01:04;;;;;;;0.60;0.45;;;11.90;99.90;;;;;;4990646;28;20212;-65
2023/04/22 03:03:32;;;;;;;0.60;0.50;;;12.00;99.90;;;;;;4989863;28;20296;-64
2023/04/22 03:06:00;;;;;;;0.80;0.52;;;12.10;99.90;;;;;;4986877;28;20248;-65
2023/04/22 03:08:29;;;;;;;1.40;0.60;;;12.20;99.90;;;;;;4989036;28;20294;-64
2023/04/22 03:10:57;;;;;;;0.50;0.40;;;12.30;99.90;;;;;;4987963;28;20635;-64
2023/04/22 03:13:25;;;;;;;0.70;0.60;;;12.40;99.90;;;;;;4985162;28;20670;-64
2023/04/22 03:15:52;;;;;;;0.60;0.40;;;12.60;99.90;;;;;;4991781;28;20701;-65
2023/04/22 03:18:20;;;;;;;0.55;0.40;;;12.60;99.90;;;;;;4988231;28;20206;-64
2023/04/22 03:20:49;;;;;;;0.60;0.50;;;12.60;99.90;;;;;;4980319;28;20694;-65
2023/04/22 03:23:17;;;;;;;0.70;0.40;;;12.60;99.90;;;;;;4986895;28;20198;-65
2023/04/22 03:25:46;;;;;;;0.73;0.73;;;12.60;99.90;;;;;;4991398;28;20221;-65
2023/04/22 03:28:14;;;;;;;0.60;0.60;;;12.60;99.90;;;;;;4990540;28;20198;-65
2023/04/22 03:30:42;;;;;;;0.60;0.47;;;12.50;99.90;;;;;;4984696;28;20321;-65
2023/04/22 03:33:11;;;;;;;0.90;0.73;;;12.30;99.90;;;;;;4985512;28;20847;-64
2023/04/22 03:35:39;;;;;;;0.75;0.68;;;12.20;99.90;;;;;;4989758;28;20730;-65
2023/04/22 03:38:07;;;;;;;0.52;0.40;;;11.80;99.90;;;;;;4989969;28;20201;-64
2023/04/22 03:40:35;;;;;;;0.50;0.40;;;11.70;99.90;;;;;;4984285;28;20213;-64
2023/04/22 03:43:04;;;;;;;0.80;0.52;;;11.70;99.90;;;;;;4987237;28;20213;-63
2023/04/22 03:45:32;;;;;;;0.80;0.80;;;11.70;99.90;;;;;;4986566;28;20297;-65
2023/04/22 03:48:03;;;;;;;0.70;0.50;;;11.80;99.90;;;;;;4985287;28;20209;-63
2023/04/22 03:50:31;;;;;;;0.60;0.40;;;11.80;99.90;;;;;;4988268;28;20265;-64
2023/04/22 03:52:59;;;;;;;0.73;0.70;;;11.70;99.90;;;;;;4987383;28;20202;-65
2023/04/22 03:55:27;;;;;;;0.50;0.40;;;11.50;99.90;;;;;;4991089;28;20228;-64
2023/04/22 03:57:55;;;;;;;0.50;0.40;;;11.60;99.90;;;;;;4988634;28;20311;-64
2023/04/22 04:00:24;;;;;;;0.60;0.45;;;11.70;99.90;;;;;;4986993;28;20209;-65
2023/04/22 04:02:52;;;;;;;0.60;0.50;;;11.80;99.90;;;;;;4987666;28;20225;-64
2023/04/22 04:05:20;;;;;;;0.50;0.40;;;11.90;99.90;;;;;;4982725;28;20605;-66
2023/04/22 04:07:48;;;;;;;0.75;0.60;;;11.90;99.90;;;;;;4987088;28;20265;-65
2023/04/22 04:10:16;;;;;;;0.55;0.40;;;11.90;99.90;;;;;;4990177;28;20234;-65
2023/04/22 04:12:44;;;;;;;0.65;0.50;;;11.70;99.90;;;;;;4980270;28;20564;-65
2023/04/22 04:15:12;;;;;;;0.60;0.40;;;11.50;99.90;;;;;;4973343;28;20226;-65
2023/04/22 04:17:41;;;;;;;0.60;0.50;;;11.40;99.90;;;;;;4986818;28;20261;-65
2023/04/22 04:20:10;;;;;;;1.65;1.00;;;11.50;99.90;;;;;;4987926;28;20198;-65
2023/04/22 04:22:38;;;;;;;0.60;0.50;;;11.60;99.90;;;;;;4989815;28;20206;-65
2023/04/22 04:25:07;;;;;;;0.70;0.50;;;11.50;99.90;;;;;;4987465;28;20301;-65
2023/04/22 04:27:34;;;;;;;1.13;0.70;;;11.50;99.90;;;;;;4984629;28;20256;-64
2023/04/22 04:30:03;;;;;;;0.60;0.47;;;11.50;99.90;;;;;;4990297;28;20297;-64
2023/04/22 04:32:33;;;;;;;0.60;0.52;;;11.50;99.90;;;;;;4985215;28;20233;-64
2023/04/22 04:35:02;;;;;;;0.60;0.50;;;11.50;99.90;;;;;;4988921;28;20237;-64
2023/04/22 04:37:30;;;;;;;0.60;0.45;;;11.50;99.90;;;;;;4987342;28;20210;-63
2023/04/22 04:39:58;;;;;;;0.60;0.40;;;11.50;99.90;;;;;;4987084;28;20217;-64
2023/04/22 04:42:26;;;;;;;0.60;0.45;;;11.50;99.90;;;;;;4982256;28;20206;-64
2023/04/22 04:44:57;;;;;;;0.80;0.73;;;11.30;99.90;;;;;;4988650;28;20249;-64
2023/04/22 04:47:25;;;;;;;1.95;1.80;;;11.40;99.90;;;;;;4989295;28;20205;-63
2023/04/22 04:49:53;;;;;;;0.98;0.55;;;11.30;99.90;;;;;;4987353;28;20619;-64
2023/04/22 04:52:22;;;;;;;0.95;0.70;;;11.30;99.90;;;;;;4985209;28;20277;-64
2023/04/22 04:54:50;;;;;;;0.65;0.60;;;11.40;99.90;;;;;;4980629;28;20308;-64
2023/04/22 04:57:18;;;;;;;0.60;0.50;;;11.30;99.90;;;;;;4990904;28;20227;-64
2023/04/22 04:59:46;;;;;;;0.50;0.40;;;11.20;99.90;;;;;;4987914;28;20288;-64
2023/04/22 05:02:13;;;;;;;0.90;0.70;;;11.20;99.90;;;;;;4987320;28;20967;-64
2023/04/22 05:04:41;;;;;;;0.70;0.70;;;11.30;99.90;;;;;;4986684;28;20241;-65
2023/04/22 05:07:09;;;;;;;0.50;0.40;;;11.20;99.90;;;;;;4990676;28;20281;-64
2023/04/22 05:09:39;;;;;;;0.60;0.50;;;11.20;99.90;;;;;;4987926;28;20277;-64
2023/04/22 05:12:07;;;;;;;0.60;0.50;;;11.30;99.90;;;;;;4983243;28;20217;-65
2023/04/22 05:14:35;;;;;;;0.70;0.50;;;11.30;99.90;;;;;;4985680;28;20666;-65
2023/04/22 05:17:03;;;;;;;0.70;0.70;;;11.30;99.90;;;;;;4989817;28;20202;-64
2023/04/22 05:19:31;;;;;;;0.82;0.47;;;11.50;99.90;;;;;;4985509;28;20289;-64
2023/04/22 05:21:58;;;;;;;0.60;0.50;;;11.30;99.90;;;;;;4989083;28;20576;-65
2023/04/22 05:24:26;;;;;;;0.60;0.50;;;11.30;99.90;;;;;;4986897;28;20644;-64
2023/04/22 05:26:56;;;;;;;0.70;0.50;;;11.40;99.90;;;;;;4986877;28;20286;-63
2023/04/22 05:29:24;;;;;;;0.70;0.40;;;11.50;99.90;;;;;;4986623;28;20202;-65
2023/04/22 05:31:52;;;;;;;0.60;0.50;;;11.50;99.90;;;;;;4985924;28;20293;-64
2023/04/22 05:34:19;;;;;;;0.50;0.40;;;11.60;99.90;;;;;;4976220;28;20277;-63
2023/04/22 05:36:47;;;;;;;0.68;0.57;;;11.60;99.90;;;;;;4975942;28;20225;-65
2023/04/22 05:39:15;;;;;;;0.70;0.60;;;11.50;99.90;;;;;;4988355;28;20225;-63
2023/04/22 05:41:43;;;;;;;0.63;0.52;;;11.50;99.90;;;;;;4986146;28;20289;-64
2023/04/22 05:44:42;;;;;;;0.60;0.40;;;11.70;99.90;;;;;;4988391;28;20237;-64
2023/04/22 05:47:11;;;;;;;0.75;0.50;;;11.80;99.90;;;;;;4964185;28;20712;-73
2023/04/22 05:49:39;;;;;;;0.50;0.40;;;12.10;99.90;;;;;;4971324;28;20289;-74
2023/04/22 05:52:07;;;;;;;0.70;0.70;;;12.10;99.90;;;;;;4971946;28;20286;-75
2023/04/22 05:54:35;;;;;;;0.55;0.38;;;12.10;99.90;;;;;;4971147;28;20250;-75
2023/04/22 05:57:03;;;;;;;0.50;0.40;;;12.20;99.90;;;;;;4970704;28;20281;-73
2023/04/22 05:59:31;;;;;;;0.50;0.40;;;12.40;99.90;;;;;;4964861;28;20211;-74
2023/04/22 06:01:59;;;;;;;0.50;0.40;;;12.50;99.90;;;;;;4964242;28;20262;-74
2023/04/22 06:04:28;;;;;;;0.60;0.50;;;12.60;99.90;;;;;;4952813;28;20207;-74
2023/04/22 06:06:57;;;;;;;0.50;0.40;;;12.60;99.90;;;;;;4960475;28;20246;-76
2023/04/22 06:09:24;;;;;;;0.60;0.50;;;12.60;99.90;;;;;;4959828;28;20246;-73
2023/04/22 06:11:52;;;;;;;0.50;0.40;;;12.60;99.90;;;;;;4958936;28;20270;-75
2023/04/22 06:14:20;;;;;;;0.60;0.43;;;12.70;99.90;;;;;;4957547;28;20203;-76
2023/04/22 06:16:49;;;;;;;0.50;0.40;;;12.90;99.90;;;;;;4966375;28;20216;-75
2023/04/22 06:19:17;;;;;;;0.50;0.40;;;13.00;99.90;;;;;;4962917;28;20218;-74
2023/04/22 06:21:46;;;;;;;0.50;0.40;;;13.10;99.90;;;;;;4954329;28;20246;-76
2023/04/22 06:24:14;;;;;;;0.50;0.40;;;13.30;99.90;;;;;;4965647;28;20199;-76
2023/04/22 06:26:42;;;;;;;0.60;0.60;;;13.30;99.90;;;;;;4967378;28;20226;-75
2023/04/22 06:29:10;;;;;;;0.60;0.50;;;13.50;99.90;;;;;;4967425;28;20203;-74
2023/04/22 06:31:37;;;;;;;0.50;0.40;;;13.60;99.90;;;;;;4956378;28;20217;-74
2023/04/22 06:34:06;;;;;;;0.50;0.40;;;13.60;99.90;;;;;;4953203;28;20227;-73
2023/04/22 06:36:36;;;;;;;0.60;0.40;;;13.70;99.90;;;;;;4953582;28;20223;-74
2023/04/22 06:39:06;;;;;;;0.50;0.40;;;13.80;99.90;;;;;;4967811;28;20625;-74
2023/04/22 06:41:34;;;;;;;0.50;0.30;;;13.90;99.90;;;;;;4961894;28;20207;-73
2023/04/22 06:44:02;;;;;;;0.60;0.40;;;13.90;99.90;;;;;;4969205;28;20685;-75
2023/04/22 06:46:30;;;;;;;0.70;0.68;;;13.90;99.90;;;;;;4958995;28;20230;-74
2023/04/22 06:48:57;;;;;;;0.90;0.70;;;13.80;99.90;;;;;;4960038;28;20203;-75
2023/04/22 06:51:25;;;;;;;0.50;0.40;;;13.80;99.90;;;;;;4963850;28;20214;-74
2023/04/22 06:53:53;;;;;;;0.60;0.40;;;13.80;99.90;;;;;;4956000;28;20241;-74
2023/04/22 06:56:22;;;;;;;0.55;0.40;;;13.90;99.90;;;;;;4973030;28;20223;-74
2023/04/22 06:58:50;;;;;;;0.65;0.60;;;13.90;99.90;;;;;;4972090;28;20210;-75
2023/04/22 07:01:22;;;;;;;0.95;0.85;;;13.90;99.90;;;;;;4964097;28;20672;-73
2023/04/22 07:03:50;;;;;;;0.75;0.75;;;14.00;99.90;;;;;;4970638;28;20214;-74
2023/04/22 07:06:20;;;;;;;0.57;0.47;;;14.10;99.90;;;;;;4971488;28;20285;-73
2023/04/22 07:08:48;;;;;;;0.70;0.60;;;14.20;99.90;;;;;;4966498;28;20206;-73
2023/04/22 07:11:16;;;;;;;0.70;0.60;;;14.20;99.90;;;;;;4968083;28;20207;-71
2023/04/22 07:13:45;;;;;;;0.60;0.50;;;14.30;99.90;;;;;;4967100;28;20285;-71
2023/04/22 07:16:13;;;;;;;0.70;0.55;;;14.40;99.90;;;;;;4972049;28;20307;-71
2023/04/22 07:18:41;;;;;;;0.60;0.50;;;14.50;99.90;;;;;;4972064;28;20207;-70
2023/04/22 07:21:09;;;;;;;0.60;0.50;;;14.70;99.90;;;;;;4973929;28;20729;-72
2023/04/22 07:23:37;;;;;;;0.60;0.60;;;14.90;99.90;;;;;;4976680;28;20210;-76
2023/04/22 07:26:05;;;;;;;0.60;0.50;;;15.10;99.90;;;;;;4968581;28;20352;-76
2023/04/22 07:28:33;;;;;;;0.63;0.50;;;15.20;99.90;;;;;;4967508;28;20202;-71
2023/04/22 07:31:02;;;;;;;0.55;0.40;;;15.20;99.90;;;;;;4974320;28;20246;-71
2023/04/22 07:33:30;;;;;;;0.77;0.70;;;15.30;99.90;;;;;;4978682;28;20668;-72
2023/04/22 07:35:58;;;;;;;0.60;0.40;;;15.40;99.90;;;;;;4967310;28;20246;-70
2023/04/22 07:38:26;;;;;;;0.60;0.40;;;15.50;99.90;;;;;;4963787;28;20295;-72
2023/04/22 07:40:54;;;;;;;0.60;0.50;;;15.70;99.90;;;;;;4971136;28;20289;-72
2023/04/22 07:43:22;;;;;;;2.08;0.93;;;15.90;99.90;;;;;;4971119;28;20198;-73
2023/04/22 07:45:50;;;;;;;0.80;0.40;;;16.10;99.90;;;;;;4975698;28;20239;-71
2023/04/22 07:48:20;;;;;;;0.52;0.40;;;16.30;99.90;;;;;;4979382;28;20809;-73
2023/04/22 07:50:47;;;;;;;1.88;1.35;;;16.40;99.90;;;;;;4970840;28;20708;-72
2023/04/22 07:53:16;;;;;;;0.90;0.50;;;16.50;99.90;;;;;;4973807;28;20227;-71
2023/04/22 07:55:44;;;;;;;0.57;0.45;;;16.40;99.90;;;;;;4973832;28;20233;-73
2023/04/22 07:58:12;;;;;;;0.65;0.60;;;16.40;99.90;;;;;;4958915;28;20246;-72
2023/04/22 08:00:40;;;;;;;0.60;0.40;;;16.40;99.90;;;;;;4957899;28;20290;-73
2023/04/22 08:03:08;;;;;;;0.50;0.30;;;16.40;99.90;;;;;;4960631;28;20727;-70
2023/04/22 08:05:38;;;;;;;0.57;0.43;;;16.50;99.90;;;;;;4962112;28;20234;-75
2023/04/22 08:08:06;;;;;;;0.73;0.73;;;16.70;99.90;;;;;;4957189;28;20290;-70
2023/04/22 08:10:34;;;;;;;0.60;0.40;;;16.90;99.90;;;;;;4963806;28;20294;-71
2023/04/22 08:13:02;;;;;;;0.60;0.40;;;17.10;99.90;;;;;;4958460;28;20297;-72
2023/04/22 08:15:30;;;;;;;0.50;0.40;;;17.30;99.90;;;;;;4958926;28;20250;-73
2023/04/22 08:17:58;;;;;;;0.70;0.63;;;17.50;99.90;;;;;;4962981;28;20242;-72
2023/04/22 08:20:26;;;;;;;0.60;0.40;;;17.70;99.90;;;;;;4963223;28;20290;-72
2023/04/22 08:22:59;;;;;;;0.60;0.40;;;17.90;99.90;;;;;;4962093;28;20246;-72
2023/04/22 08:25:27;;;;;;;0.50;0.30;;;17.90;99.90;;;;;;4960723;28;20219;-72
2023/04/22 08:27:55;;;;;;;0.60;0.40;;;18.00;99.90;;;;;;4963330;28;20202;-71
2023/04/22 08:30:23;;;;;;;0.70;0.60;;;18.00;99.90;;;;;;4960543;28;20641;-71
2023/04/22 08:32:52;;;;;;;0.60;0.43;;;17.90;99.90;;;;;;4961673;28;20253;-72
2023/04/22 08:35:20;;;;;;;0.60;0.55;;;18.10;99.90;;;;;;4957331;28;20229;-72
2023/04/22 08:37:48;;;;;;;0.68;0.50;;;18.50;99.90;;;;;;4960576;28;20250;-72
2023/04/22 08:40:17;;;;;;;0.60;0.40;;;18.70;99.90;;;;;;4961570;28;20242;-72
2023/04/22 08:42:45;;;;;;;1.30;0.68;;;18.80;99.90;;;;;;4959408;28;20293;-73
2023/04/22 08:45:13;;;;;;;0.50;0.38;;;18.90;99.90;;;;;;4959778;28;20607;-76
2023/04/22 08:47:42;;;;;;;0.50;0.30;;;19.10;99.90;;;;;;4957490;28;20210;-73
2023/04/22 08:50:10;;;;;;;0.70;0.70;;;19.30;99.90;;;;;;4957982;28;20211;-72
2023/04/22 08:52:38;;;;;;;0.65;0.63;;;19.30;99.90;;;;;;4968117;28;20226;-72
2023/04/22 08:55:07;;;;;;;0.60;0.50;;;19.20;99.90;;;;;;4964843;28;20233;-72
2023/04/22 08:57:39;;;;;;;0.80;0.50;;;19.20;99.90;;;;;;4972648;28;20218;-71
2023/04/22 09:00:08;;;;;;;0.68;0.60;;;19.10;99.90;;;;;;4965008;28;20210;-72
2023/04/22 09:02:37;;;;;;;1.45;0.70;;;19.10;99.90;;;;;;4972618;28;20234;-73
2023/04/22 09:05:10;;;;;;;0.88;0.82;;;19.30;99.90;;;;;;4972424;28;20281;-72
2023/04/22 09:07:39;;;;;;;0.60;0.40;;;19.50;99.90;;;;;;4968660;28;20209;-73
2023/04/22 09:10:10;;;;;;;0.60;0.50;;;19.80;99.90;;;;;;4964326;28;20215;-72
2023/04/22 09:12:40;;;;;;;1.25;1.10;;;19.80;99.90;;;;;;4972419;28;20764;-74
2023/04/22 09:15:10;;;;;;;0.60;0.50;;;19.70;99.90;;;;;;4964958;28;20226;-72
2023/04/22 09:17:38;;;;;;;0.63;0.50;;;19.40;99.90;;;;;;4972274;28;20250;-72
2023/04/22 09:20:07;;;;;;;0.50;0.40;;;19.00;99.90;;;;;;4972029;28;20207;-72
2023/04/22 09:22:40;;;;;;;0.80;0.80;;;18.80;99.90;;;;;;4970510;28;20209;-71
2023/04/22 09:25:16;;;;;;;0.70;0.50;;;18.70;99.90;;;;;;4964222;28;20711;-71
2023/04/22 09:27:49;;;;;;;0.70;0.55;;;18.50;99.90;;;;;;4972083;28;20212;-72
2023/04/22 09:30:18;;;;;;;0.85;0.85;;;18.40;99.90;;;;;;4972138;28;20207;-72
2023/04/22 09:32:53;;;;;;;0.70;0.60;;;18.30;99.90;;;;;;4972069;28;20292;-72
2023/04/22 09:35:28;;;;;;;1.33;0.60;;;18.20;99.90;;;;;;4972234;28;20218;-71
2023/04/22 09:37:57;;;;;;;0.90;0.60;;;18.40;99.90;;;;;;4967875;28;20225;-71
2023/04/22 09:40:26;;;;;;;0.70;0.50;;;18.40;99.90;;;;;;4971836;28;20230;-71
2023/04/22 09:42:58;;;;;;;0.70;0.70;;;18.50;99.90;;;;;;4971783;28;20728;-72
2023/04/22 09:45:30;;;;;;;0.80;0.80;;;18.70;99.90;;;;;;4971868;28;20240;-73
2023/04/22 09:48:02;;;;;;;1.30;1.05;;;18.80;99.90;;;;;;4971701;28;20213;-71
2023/04/22 09:50:31;;;;;;;0.80;0.80;;;19.20;99.90;;;;;;4971904;28;20286;-71
2023/04/22 09:53:01;;;;;;;0.70;0.50;;;19.40;99.90;;;;;;4970237;28;20238;-72
2023/04/22 09:55:32;;;;;;;1.88;0.98;;;19.80;99.90;;;;;;4972071;28;20257;-72
2023/04/22 09:58:07;;;;;;;0.80;0.80;;;19.90;99.90;;;;;;4971743;28;20222;-72
2023/04/22 10:00:39;;;;;;;1.05;0.93;;;20.30;99.90;;;;;;4971724;28;20259;-71
2023/04/22 10:03:07;;;;;;;0.70;0.63;;;20.50;99.90;;;;;;4971922;28;20386;-72
2023/04/22 10:05:38;;;;;;;0.60;0.40;;;20.90;99.90;;;;;;4971900;28;20281;-72
2023/04/22 10:08:07;;;;;;;2.55;1.40;;;21.40;99.90;;;;;;4970008;28;20211;-71
2023/04/22 10:10:37;;;;;;;0.60;0.50;;;21.70;99.90;;;;;;4971569;28;20214;-72
2023/04/22 10:13:07;;;;;;;0.60;0.43;;;21.50;99.90;;;;;;4971413;28;20783;-72
2023/04/22 10:15:37;;;;;;;1.25;0.70;;;21.70;99.90;;;;;;4971738;28;20262;-71
2023/04/22 10:18:08;;;;;;;0.60;0.50;;;22.10;99.90;;;;;;4972687;28;20652;-71
2023/04/22 10:20:38;;;;;;;0.70;0.60;;;21.90;99.90;;;;;;4975497;28;20293;-70
2023/04/22 10:23:13;;;;;;;0.60;0.40;;;22.00;99.90;;;;;;4974991;28;20219;-70
2023/04/22 10:25:41;;;;;;;0.60;0.52;;;22.10;99.90;;;;;;4975334;28;20234;-71
2023/04/22 10:28:11;;;;;;;0.60;0.47;;;22.30;99.90;;;;;;4975202;28;20278;-71
2023/04/22 10:30:39;;;;;;;0.88;0.73;;;22.30;99.90;;;;;;4975337;28;20265;-71
2023/04/22 10:33:37;;;;;;;0.73;0.63;;;22.00;99.90;;;;;;4975011;28;20752;-72
2023/04/22 10:36:10;;;;;;;0.70;0.55;;;22.00;99.90;;;;;;4972765;28;20228;-71
2023/04/22 10:38:40;;;;;;;0.80;0.60;;;22.20;99.90;;;;;;4975136;28;20223;-71
2023/04/22 10:41:13;;;;;;;0.93;0.60;;;22.30;99.90;;;;;;4974755;28;20650;-73
2023/04/22 10:43:46;;;;;;;0.70;0.60;;;22.60;99.90;;;;;;4975435;28;20634;-71
2023/04/22 10:46:51;;;;;;;0.60;0.50;;;22.80;99.90;;;;;;4966962;28;20724;-71
2023/04/22 10:49:21;;;;;;;0.80;0.70;;;23.50;99.90;;;;;;4967746;28;20672;-71
2023/04/22 10:51:50;;;;;;;0.60;0.47;;;23.90;99.90;;;;;;4971188;28;20299;-71
2023/04/22 10:54:59;;;;;;;0.60;0.57;;;24.10;99.90;;;;;;4975260;28;20290;-71
2023/04/22 10:57:45;;;;;;;0.70;0.50;;;24.20;99.90;;;;;;4962735;28;20284;-70
2023/04/22 11:00:42;;;;;;;0.70;0.70;;;24.20;99.90;;;;;;4974970;28;20267;-72
2023/04/22 11:03:27;;;;;;;0.70;0.70;;;24.20;99.60;;;;;;4967761;28;20239;-72
2023/04/22 11:06:14;;;;;;;0.70;0.55;;;24.50;99.60;;;;;;4970210;28;20273;-72
2023/04/22 11:08:45;;;;;;;0.60;0.40;;;24.50;99.00;;;;;;4974883;28;20227;-70
2023/04/22 11:11:13;;;;;;;1.25;0.73;;;24.50;99.30;;;;;;4974252;28;20288;-71
2023/04/22 11:13:42;;;;;;;0.60;0.40;;;24.30;99.70;;;;;;4974483;28;20271;-72
2023/04/22 11:16:11;;;;;;;0.60;0.40;;;24.60;99.90;;;;;;4974559;28;20228;-72
2023/04/22 11:18:40;;;;;;;0.60;0.50;;;24.90;98.50;;;;;;4974264;28;20228;-73
2023/04/22 11:21:08;;;;;;;0.60;0.43;;;24.90;97.60;;;;;;4968328;28;20293;-73
2023/04/22 11:23:36;;;;;;;0.75;0.47;;;24.90;97.00;;;;;;4974084;28;20243;-72
2023/04/22 11:26:06;;;;;;;0.75;0.50;;;24.70;96.50;;;;;;4974043;28;20236;-72
2023/04/22 11:28:33;;;;;;;0.50;0.40;;;24.80;96.50;;;;;;4974010;28;20209;-72
2023/04/22 11:31:04;;;;;;;0.60;0.50;;;25.10;95.80;;;;;;4973075;28;20244;-71
2023/04/22 11:33:34;;;;;;;0.60;0.50;;;25.40;95.50;;;;;;4974121;28;20237;-71
2023/04/22 11:36:02;;;;;;;1.20;1.10;;;25.40;94.70;;;;;;4966945;28;20295;-70
2023/04/22 11:38:30;;;;;;;0.60;0.40;;;25.00;94.20;;;;;;4973383;28;20725;-72
2023/04/22 11:40:58;;;;;;;0.60;0.40;;;25.00;94.00;;;;;;4973637;28;20286;-72
2023/04/22 11:43:26;;;;;;;0.50;0.40;;;25.10;94.80;;;;;;4973990;28;20686;-73
2023/04/22 11:45:56;;;;;;;0.55;0.40;;;25.30;92.90;;;;;;4973618;28;20283;-71
2023/04/22 11:48:30;;;;;;;0.60;0.40;;;25.10;93.20;;;;;;4974084;28;20228;-72
2023/04/22 11:51:10;;;;;;;0.60;0.40;;;25.10;93.10;;;;;;4946630;28;20662;-64
2023/04/22 11:53:40;;;;;;;0.50;0.40;;;25.10;93.50;;;;;;4948483;28;20217;-64
2023/04/22 11:56:08;;;;;;;0.57;0.40;;;25.00;92.50;;;;;;4954174;28;20224;-64
2023/04/22 11:58:39;;;;;;;0.60;0.40;;;25.30;93.50;;;;;;4942105;28;20237;-63
2023/04/22 12:01:12;;;;;;;0.52;0.40;;;25.50;92.60;;;;;;4948193;28;20270;-63
2023/04/22 12:03:40;;;;;;;0.50;0.32;;;26.00;92.60;;;;;;4945476;28;20273;-64
2023/04/22 12:06:10;;;;;;;0.70;0.55;;;26.10;91.80;;;;;;4947376;28;20220;-64
2023/04/22 12:08:40;;;;;;;0.60;0.40;;;25.80;92.10;;;;;;4947529;28;20215;-63
2023/04/22 12:11:10;;;;;;;1.25;0.40;;;25.90;91.00;;;;;;4946408;28;20216;-63
2023/04/22 12:13:42;;;;;;;0.80;0.80;;;25.60;90.70;;;;;;4947035;28;20218;-64
2023/04/22 12:16:11;;;;;;;0.70;0.52;;;25.40;90.80;;;;;;4947764;28;20214;-64
2023/04/22 12:18:47;;;;;;;0.63;0.50;;;25.40;91.80;;;;;;4944936;28;20218;-64
2023/04/22 12:21:18;;;;;;;1.10;1.00;;;25.60;91.80;;;;;;4945407;28;20698;-64
2023/04/22 12:23:48;;;;;;;1.15;1.08;;;25.90;91.50;;;;;;4943755;28;20229;-65
2023/04/22 12:26:17;;;;;;;0.70;0.60;;;26.40;91.10;;;;;;4952586;28;20222;-64
2023/04/22 12:28:45;;;;;;;0.60;0.40;;;26.40;91.10;;;;;;4948263;28;20211;-64
2023/04/22 12:31:14;;;;;;;0.70;0.57;;;26.50;90.40;;;;;;4946491;28;20751;-64
2023/04/22 12:33:43;;;;;;;0.60;0.40;;;26.30;88.90;;;;;;4942987;28;20276;-63
2023/04/22 12:36:11;;;;;;;0.60;0.50;;;26.30;90.00;;;;;;4948839;28;20261;-64
2023/04/22 12:38:40;;;;;;;0.60;0.50;;;26.20;90.80;;;;;;4945247;28;20225;-64
2023/04/22 12:41:08;;;;;;;0.70;0.70;;;26.20;91.00;;;;;;4945572;28;20234;-63
2023/04/22 12:43:36;;;;;;;0.70;0.50;;;26.50;89.40;;;;;;4947361;28;20210;-64
2023/04/22 12:46:05;;;;;;;0.57;0.43;;;26.30;89.80;;;;;;4946111;28;20210;-64
2023/04/22 12:48:34;;;;;;;0.60;0.40;;;25.70;90.20;;;;;;4944800;28;20371;-64
2023/04/22 12:51:02;;;;;;;0.95;0.75;;;25.20;91.10;;;;;;4978229;28;20218;-64
2023/04/22 12:53:30;;;;;;;0.60;0.40;;;25.40;91.80;;;;;;4988223;28;20200;-64
2023/04/22 12:55:59;;;;;;;0.70;0.45;;;25.20;91.50;;;;;;4986317;28;20669;-64
2023/04/22 12:58:27;;;;;;;0.60;0.50;;;24.90;91.50;;;;;;4983355;28;20247;-64